Time;durP1;ratioP1;P1;durP2;ratioP2;P2;SDS_P1;SDS_P2;PMS_P1;PMS_P2;Temp;Humidity;BMP_temperature;BMP_pressure;BME280_temperature;BME280_humidity;BME280_pressure;Samples;Min_cycle;Max_cycle;Signal;HPM_P1;HPM_P2
2021/12/28 00:00:08;;;;;;;31.67;16.50;;;;;;;14.77;71.41;100156.59;4996409;28;20033;-79
2021/12/28 00:02:34;;;;;;;28.27;16.13;;;;;;;14.69;71.87;100165.53;4978985;28;20026;-79
2021/12/28 00:05:02;;;;;;;33.60;15.20;;;;;;;14.56;71.95;100171.38;4996582;28;20380;-79
2021/12/28 00:07:28;;;;;;;37.03;16.77;;;;;;;14.58;72.30;100163.13;4996603;28;20516;-79
2021/12/28 00:09:53;;;;;;;33.75;15.57;;;;;;;14.64;72.72;100162.47;4996353;28;20023;-79
2021/12/28 00:12:19;;;;;;;31.25;15.77;;;;;;;14.55;72.75;100160.72;4995967;28;20053;-79
2021/12/28 00:15:01;;;;;;;31.23;14.07;;;;;;;14.57;72.74;100167.66;4996485;28;20026;-79
2021/12/28 00:20:11;;;;;;;15.82;9.32;;;;;;;14.11;69.17;100177.00;4996948;28;20060;-78
2021/12/28 00:22:36;;;;;;;21.27;11.25;;;;;;;14.05;69.15;100177.63;4996351;28;20461;-80
2021/12/28 00:25:04;;;;;;;19.48;10.02;;;;;;;13.81;68.74;100158.53;4978778;28;20043;-79
2021/12/28 00:27:29;;;;;;;18.15;9.88;;;;;;;13.73;69.13;100177.34;4995876;28;20093;-79
2021/12/28 00:29:55;;;;;;;24.23;9.25;;;;;;;13.65;69.15;100163.78;4995835;28;20050;-79
2021/12/28 00:32:21;;;;;;;25.05;9.82;;;;;;;13.64;69.12;100167.47;4996021;28;20533;-79
2021/12/28 00:34:46;;;;;;;15.32;8.85;;;;;;;13.60;69.44;100171.53;4996184;28;20030;-79
2021/12/28 00:37:12;;;;;;;19.05;10.23;;;;;;;13.50;69.61;100170.75;4995511;28;20457;-79
2021/12/28 00:39:37;;;;;;;23.55;8.95;;;;;;;13.37;69.62;100159.47;4977158;28;20062;-79
2021/12/28 00:42:03;;;;;;;16.85;8.77;;;;;;;13.32;69.86;100169.88;4995144;28;20046;-79
2021/12/28 00:44:28;;;;;;;17.98;8.75;;;;;;;13.27;70.35;100162.22;4996007;28;20045;-77
2021/12/28 00:46:54;;;;;;;15.20;8.43;;;;;;;13.22;71.08;100171.81;4978529;28;20046;-78
2021/12/28 00:49:20;;;;;;;13.80;8.00;;;;;;;13.19;71.35;100185.59;5012412;28;20026;-78
2021/12/28 00:51:45;;;;;;;16.23;8.98;;;;;;;13.07;71.18;100168.75;4999112;28;20036;-79
2021/12/28 00:54:10;;;;;;;14.13;8.32;;;;;;;13.06;71.61;100189.50;4995883;28;20030;-79
2021/12/28 00:56:36;;;;;;;15.55;9.52;;;;;;;12.98;71.50;100185.84;4995605;28;20076;-79
2021/12/28 00:59:01;;;;;;;16.45;8.80;;;;;;;12.88;72.57;100185.91;4995390;28;20507;-79
2021/12/28 01:01:27;;;;;;;14.40;7.82;;;;;;;12.79;72.70;100199.44;4996050;28;20479;-79
2021/12/28 01:03:52;;;;;;;23.45;10.07;;;;;;;12.54;72.67;100187.47;4996285;28;20034;-78
2021/12/28 01:06:18;;;;;;;17.88;9.77;;;;;;;12.07;75.04;100178.56;4996676;28;20026;-82
2021/12/28 01:08:43;;;;;;;22.35;10.40;;;;;;;11.91;77.86;100189.06;4995895;28;20033;-77
2021/12/28 01:11:09;;;;;;;18.50;11.32;;;;;;;11.62;79.80;100188.22;4994822;28;20105;-77
2021/12/28 01:13:35;;;;;;;17.08;10.82;;;;;;;11.44;81.70;100182.69;4994324;28;20037;-76
2021/12/28 01:16:00;;;;;;;18.77;9.10;;;;;;;11.13;82.38;100184.63;4993744;28;20030;-76
2021/12/28 01:18:26;;;;;;;23.27;11.38;;;;;;;10.90;83.42;100196.63;4994461;28;20037;-76
2021/12/28 01:20:51;;;;;;;17.55;11.05;;;;;;;10.67;84.25;100190.59;4993778;28;20026;-76
2021/12/28 01:23:18;;;;;;;19.40;12.13;;;;;;;10.56;85.15;100185.31;4993950;28;20049;-76
2021/12/28 01:25:44;;;;;;;22.90;11.95;;;;;;;10.53;85.95;100171.28;4993847;28;20125;-76
2021/12/28 01:28:10;;;;;;;19.85;12.23;;;;;;;10.43;86.69;100176.63;4976427;28;20457;-76
2021/12/28 01:30:35;;;;;;;27.80;14.10;;;;;;;10.38;86.22;100168.13;4993993;28;20026;-76
2021/12/28 01:33:02;;;;;;;23.30;14.52;;;;;;;10.40;86.41;100176.91;4994137;28;20026;-76
2021/12/28 01:35:29;;;;;;;19.45;13.55;;;;;;;10.39;87.30;100175.22;4993558;28;20030;-76
2021/12/28 01:37:56;;;;;;;22.50;13.85;;;;;;;10.48;87.72;100178.94;4993469;28;20033;-77
2021/12/28 01:40:28;;;;;;;23.98;13.52;;;;;;;10.50;88.33;100171.56;4993592;28;20060;-76
2021/12/28 01:43:06;;;;;;;17.13;11.38;;;;;;;10.53;88.25;100165.91;4993793;28;20045;-76
2021/12/28 01:45:41;;;;;;;23.00;12.35;;;;;;;10.57;87.28;100173.59;4993973;28;20448;-76
2021/12/28 01:48:07;;;;;;;18.45;11.77;;;;;;;10.54;86.45;100183.75;4993276;28;20477;-77
2021/12/28 01:50:34;;;;;;;18.02;11.40;;;;;;;10.55;85.67;100188.16;4993578;28;20483;-76
2021/12/28 01:53:00;;;;;;;19.27;12.02;;;;;;;10.52;85.14;100194.63;4993677;28;20026;-76
2021/12/28 01:55:26;;;;;;;20.17;12.43;;;;;;;10.59;84.37;100193.13;4993642;28;20062;-76
2021/12/28 01:57:51;;;;;;;17.35;11.80;;;;;;;10.58;83.92;100196.78;4993800;28;20061;-77
2021/12/28 02:00:18;;;;;;;16.30;12.13;;;;;;;10.64;84.32;100211.56;4993130;28;20045;-76
2021/12/28 02:02:44;;;;;;;23.58;13.80;;;;;;;10.55;83.92;100213.19;4993083;28;20018;-77
2021/12/28 02:05:10;;;;;;;16.80;11.10;;;;;;;10.50;83.55;100207.38;4993452;28;20400;-77
2021/12/28 02:07:35;;;;;;;22.73;11.55;;;;;;;10.48;83.30;100213.88;4993625;28;20022;-77
2021/12/28 02:10:01;;;;;;;12.30;9.48;;;;;;;10.41;83.06;100221.63;4993749;28;20396;-77
2021/12/28 02:12:30;;;;;;;9.80;8.02;;;;;;;10.16;82.35;100216.66;4993783;28;20033;-76
2021/12/28 02:14:56;;;;;;;13.23;9.15;;;;;;;10.13;81.88;100212.41;4993055;28;20023;-77
2021/12/28 02:17:23;;;;;;;13.30;8.90;;;;;;;10.04;82.42;100223.06;4993128;28;20045;-77
2021/12/28 02:19:49;;;;;;;14.77;9.38;;;;;;;9.95;83.07;100221.16;4993538;28;20027;-78
2021/12/28 02:22:14;;;;;;;13.50;10.50;;;;;;;9.80;83.21;100210.75;4990851;28;20026;-78
2021/12/28 02:24:40;;;;;;;16.17;11.23;;;;;;;9.73;83.97;100212.22;4973642;28;20061;-76
2021/12/28 02:27:05;;;;;;;21.25;11.02;;;;;;;9.63;84.17;100215.84;4983291;28;20080;-76
2021/12/28 02:29:31;;;;;;;13.65;9.13;;;;;;;9.55;84.77;100212.94;4993742;28;20030;-75
2021/12/28 02:31:56;;;;;;;14.02;9.73;;;;;;;9.48;85.29;100209.06;4977486;28;20035;-76
2021/12/28 02:34:26;;;;;;;15.18;9.52;;;;;;;9.50;85.85;100213.31;4992285;28;20501;-76
2021/12/28 02:36:52;;;;;;;12.98;10.18;;;;;;;9.48;85.57;100204.53;4988939;28;20034;-75
2021/12/28 02:39:18;;;;;;;13.77;8.63;;;;;;;9.49;85.72;100200.03;4987202;28;20026;-76
2021/12/28 02:41:44;;;;;;;12.80;8.90;;;;;;;9.45;85.16;100202.09;4974243;28;20027;-76
2021/12/28 02:44:09;;;;;;;12.45;9.27;;;;;;;9.51;85.14;100203.44;4984121;28;20049;-77
2021/12/28 02:46:35;;;;;;;14.43;9.32;;;;;;;9.45;84.45;100215.53;4979260;28;20508;-76
2021/12/28 02:49:01;;;;;;;11.77;8.65;;;;;;;9.39;84.33;100207.97;4973504;28;20030;-76
2021/12/28 02:51:27;;;;;;;14.20;8.95;;;;;;;9.37;84.37;100201.91;4973480;28;20034;-76
2021/12/28 02:53:53;;;;;;;11.68;9.18;;;;;;;9.33;84.22;100195.06;4973566;28;20026;-76
2021/12/28 02:56:21;;;;;;;14.00;9.23;;;;;;;9.25;84.14;100208.28;4977297;28;20556;-76
2021/12/28 02:58:52;;;;;;;11.10;8.77;;;;;;;9.27;84.71;100204.50;4973500;28;20027;-76
2021/12/28 03:01:19;;;;;;;16.15;9.40;;;;;;;9.25;84.95;100206.47;4955827;28;20027;-76
2021/12/28 03:03:46;;;;;;;12.75;8.27;;;;;;;9.20;85.03;100205.13;4974906;28;20132;-76
2021/12/28 03:06:15;;;;;;;10.18;7.82;;;;;;;9.15;85.35;100208.19;4981811;28;20081;-76
2021/12/28 03:08:44;;;;;;;9.50;7.85;;;;;;;9.07;85.41;100220.53;4996736;28;20045;-76
2021/12/28 03:11:11;;;;;;;10.68;8.77;;;;;;;9.04;84.31;100220.78;4995954;28;20023;-76
2021/12/28 03:13:42;;;;;;;9.55;7.65;;;;;;;9.05;84.84;100219.81;4996195;28;20400;-77
2021/12/28 03:16:09;;;;;;;12.73;8.73;;;;;;;9.03;84.88;100229.78;4991613;28;20192;-76
2021/12/28 03:18:35;;;;;;;10.02;8.23;;;;;;;9.02;84.76;100226.25;4981480;28;20030;-76
2021/12/28 03:21:02;;;;;;;11.43;8.27;;;;;;;9.11;83.40;100227.34;4976907;28;20084;-76
2021/12/28 03:23:28;;;;;;;9.80;8.68;;;;;;;9.12;82.60;100226.34;4976828;28;20030;-76
2021/12/28 03:25:54;;;;;;;9.35;7.50;;;;;;;9.18;80.98;100231.22;4976668;28;20019;-76
2021/12/28 03:28:25;;;;;;;11.25;8.05;;;;;;;9.20;80.20;100216.69;4986409;28;20031;-76
2021/12/28 03:30:52;;;;;;;9.20;7.32;;;;;;;9.07;79.25;100231.25;4976770;28;20105;-76
2021/12/28 03:33:20;;;;;;;8.95;6.57;;;;;;;9.10;80.93;100225.63;4977022;28;20378;-77
2021/12/28 03:35:46;;;;;;;8.07;6.70;;;;;;;8.95;81.99;100226.88;4976793;28;20185;-76
2021/12/28 03:38:12;;;;;;;8.40;7.20;;;;;;;8.80;80.89;100233.50;4987587;28;20530;-76
2021/12/28 03:40:38;;;;;;;8.30;6.90;;;;;;;8.77;81.38;100230.06;4995922;28;20053;-77
2021/12/28 03:43:03;;;;;;;10.88;7.28;;;;;;;8.84;82.12;100224.22;4995960;28;20404;-76
2021/12/28 03:45:29;;;;;;;13.15;6.90;;;;;;;8.89;81.40;100236.28;4996117;28;20030;-76
2021/12/28 03:47:54;;;;;;;10.07;7.38;;;;;;;8.93;81.23;100223.50;4982867;28;20047;-77
2021/12/28 03:50:22;;;;;;;11.68;7.00;;;;;;;8.89;79.99;100230.06;4976434;28;20022;-77
2021/12/28 03:52:49;;;;;;;8.70;6.55;;;;;;;8.90;79.01;100239.81;4976540;28;20030;-77
2021/12/28 03:55:14;;;;;;;9.23;6.97;;;;;;;8.95;79.65;100237.63;4976593;28;20026;-77
2021/12/28 03:57:40;;;;;;;10.10;7.20;;;;;;;8.96;80.69;100239.34;4968826;28;20038;-77
2021/12/28 04:00:09;;;;;;;9.32;7.35;;;;;;;8.99;80.43;100239.91;4995730;28;20026;-77
2021/12/28 04:02:34;;;;;;;10.15;7.97;;;;;;;9.02;79.54;100241.53;4978722;28;20519;-77
2021/12/28 04:05:00;;;;;;;10.75;7.28;;;;;;;9.01;78.73;100242.47;4996058;28;20026;-77
2021/12/28 04:07:26;;;;;;;10.80;7.35;;;;;;;8.99;78.45;100247.13;4993248;28;20030;-76
2021/12/28 04:12:19;;;;;;;10.15;7.35;;;;;;;9.01;78.30;100256.75;4995587;28;20093;-77
2021/12/28 04:14:44;;;;;;;10.98;7.22;;;;;;;9.02;77.60;100262.97;4994159;28;20030;-77
2021/12/28 04:17:10;;;;;;;9.90;7.82;;;;;;;9.07;78.04;100263.44;4989977;28;20035;-77
2021/12/28 04:19:35;;;;;;;9.07;7.65;;;;;;;9.11;79.18;100270.28;4975787;28;20027;-77
2021/12/28 04:22:01;;;;;;;7.80;6.38;;;;;;;8.98;78.98;100269.56;4975561;28;20481;-77
2021/12/28 04:24:26;;;;;;;8.57;6.47;;;;;;;8.94;79.39;100276.13;4975495;28;20023;-77
2021/12/28 04:26:52;;;;;;;8.20;6.72;;;;;;;8.69;79.15;100263.81;4976245;28;20027;-77
2021/12/28 04:29:17;;;;;;;8.02;6.30;;;;;;;8.63;79.54;100267.00;4975988;28;20022;-76
2021/12/28 04:31:42;;;;;;;9.02;6.95;;;;;;;8.49;79.56;100270.78;4975691;28;20022;-76
2021/12/28 04:34:08;;;;;;;9.98;7.35;;;;;;;8.31;80.31;100269.53;4958860;28;20030;-76
2021/12/28 04:36:34;;;;;;;8.98;6.85;;;;;;;8.25;80.23;100275.34;4980097;28;20035;-76
2021/12/28 04:38:59;;;;;;;9.73;7.75;;;;;;;8.04;78.70;100266.28;4987412;28;20049;-76
2021/12/28 04:41:25;;;;;;;9.52;7.00;;;;;;;7.98;80.13;100261.41;4994878;28;20026;-76
2021/12/28 04:43:51;;;;;;;8.48;7.45;;;;;;;7.96;80.21;100269.53;4994967;28;20053;-76
2021/12/28 04:46:16;;;;;;;8.20;6.70;;;;;;;8.01;79.82;100267.34;4990367;28;20593;-76
2021/12/28 04:48:42;;;;;;;9.35;7.05;;;;;;;7.94;79.95;100265.25;4994983;28;20062;-76
2021/12/28 04:51:08;;;;;;;8.80;6.60;;;;;;;7.98;80.07;100280.97;4995464;28;20085;-77
2021/12/28 04:53:34;;;;;;;8.85;7.20;;;;;;;8.08;79.49;100279.28;4994811;28;20473;-76
2021/12/28 04:55:59;;;;;;;10.45;8.38;;;;;;;8.19;79.12;100291.88;4990037;28;20052;-76
2021/12/28 04:58:25;;;;;;;9.43;7.40;;;;;;;8.29;78.83;100292.88;4994456;28;20058;-76
2021/12/28 05:00:52;;;;;;;14.82;8.15;;;;;;;8.11;78.17;100288.91;4994439;28;20105;-76
2021/12/28 05:03:18;;;;;;;9.55;7.95;;;;;;;8.12;78.35;100298.66;4994498;28;20109;-77
2021/12/28 05:05:46;;;;;;;9.40;7.05;;;;;;;8.22;79.13;100291.66;4989234;28;20440;-77
2021/12/28 05:08:13;;;;;;;9.23;7.50;;;;;;;8.23;80.24;100296.00;4994463;28;20054;-77
2021/12/28 05:10:40;;;;;;;10.88;8.18;;;;;;;8.10;79.54;100297.94;4994397;28;20042;-77
2021/12/28 05:13:06;;;;;;;8.07;6.88;;;;;;;7.99;79.32;100292.53;4994526;28;20357;-77
2021/12/28 05:15:32;;;;;;;9.25;7.85;;;;;;;8.04;79.47;100288.53;4990220;28;20054;-77
2021/12/28 05:17:57;;;;;;;9.27;7.22;;;;;;;7.89;79.51;100295.03;4975187;28;20126;-76
2021/12/28 05:20:23;;;;;;;16.88;8.80;;;;;;;7.95;78.48;100291.91;4975126;28;20049;-76
2021/12/28 05:22:49;;;;;;;8.73;7.22;;;;;;;8.05;78.77;100289.38;4975039;28;20031;-76
2021/12/28 05:25:15;;;;;;;10.63;7.50;;;;;;;8.05;78.00;100300.09;4975891;28;20420;-77
2021/12/28 05:27:41;;;;;;;8.00;6.70;;;;;;;8.06;77.37;100294.66;4994244;28;20118;-77
2021/12/28 05:30:08;;;;;;;10.60;8.02;;;;;;;8.07;77.58;100293.66;4994489;28;20022;-77
2021/12/28 05:32:33;;;;;;;10.63;7.22;;;;;;;8.26;77.42;100286.88;4993983;28;20041;-77
2021/12/28 05:34:59;;;;;;;7.30;6.53;;;;;;;8.29;77.75;100290.22;4993411;28;20026;-77
2021/12/28 05:37:25;;;;;;;11.93;8.43;;;;;;;8.19;76.91;100291.88;4993391;28;20061;-77
2021/12/28 05:39:50;;;;;;;8.48;6.57;;;;;;;8.32;77.80;100297.19;4994071;28;20027;-77
2021/12/28 05:42:16;;;;;;;9.07;7.13;;;;;;;8.23;77.86;100283.47;4993871;28;20034;-77
2021/12/28 05:44:41;;;;;;;9.38;7.68;;;;;;;8.27;77.59;100285.91;4984848;28;20042;-77
2021/12/28 05:47:07;;;;;;;10.30;7.43;;;;;;;8.32;79.28;100279.25;4976281;28;20047;-77
2021/12/28 05:49:32;;;;;;;9.40;7.03;;;;;;;8.34;79.94;100287.19;4994654;28;20042;-78
2021/12/28 05:51:58;;;;;;;12.50;8.85;;;;;;;8.43;79.10;100294.50;4974949;28;20193;-78
2021/12/28 05:54:23;;;;;;;12.00;8.38;;;;;;;8.48;78.79;100303.91;4979024;28;20026;-79
2021/12/28 05:56:49;;;;;;;13.00;8.18;;;;;;;8.59;79.17;100303.06;4974563;28;20109;-79
2021/12/28 05:59:14;;;;;;;11.98;8.68;;;;;;;8.62;79.11;100294.78;4974183;28;20456;-79
2021/12/28 06:01:40;;;;;;;12.18;9.45;;;;;;;8.54;79.10;100292.69;4974737;28;20033;-79
2021/12/28 06:04:07;;;;;;;12.65;8.23;;;;;;;8.57;78.61;100315.72;4974573;28;20111;-79
2021/12/28 06:06:32;;;;;;;12.35;9.35;;;;;;;8.63;79.54;100323.28;4974264;28;20410;-80
2021/12/28 06:08:58;;;;;;;12.40;7.72;;;;;;;8.45;79.26;100314.84;4974172;28;20097;-79
2021/12/28 06:11:24;;;;;;;13.45;8.73;;;;;;;8.33;78.19;100321.16;4974677;28;20031;-79
2021/12/28 06:13:49;;;;;;;8.60;7.18;;;;;;;8.27;77.62;100321.59;4976309;28;20473;-80
2021/12/28 06:16:15;;;;;;;12.85;8.40;;;;;;;8.21;76.83;100324.75;4994189;28;20026;-80
2021/12/28 06:18:41;;;;;;;9.38;7.25;;;;;;;8.17;77.05;100331.31;4975856;28;20034;-81
2021/12/28 06:21:07;;;;;;;7.88;6.60;;;;;;;8.07;76.50;100324.97;4974539;28;20476;-80
2021/12/28 06:23:33;;;;;;;9.93;7.05;;;;;;;8.12;76.72;100346.88;4974460;28;20034;-80
2021/12/28 06:25:59;;;;;;;8.80;7.03;;;;;;;8.11;78.13;100347.84;4993592;28;20396;-80
2021/12/28 06:28:24;;;;;;;60.58;39.08;;;;;;;8.11;78.55;100343.34;4994158;28;20030;-80
2021/12/28 06:30:50;;;;;;;13.15;10.40;;;;;;;8.24;79.33;100348.63;4976947;28;20027;-80
2021/12/28 06:33:16;;;;;;;10.55;7.70;;;;;;;8.28;78.80;100351.97;4995009;28;20034;-79
2021/12/28 06:35:42;;;;;;;11.77;9.13;;;;;;;8.40;79.01;100373.31;4994774;28;20026;-79
2021/12/28 06:38:08;;;;;;;21.73;14.98;;;;;;;8.37;79.10;100362.84;4990987;28;20477;-80
2021/12/28 06:40:35;;;;;;;12.52;8.73;;;;;;;8.35;77.18;100358.56;4987144;28;20034;-79
2021/12/28 06:43:00;;;;;;;12.43;8.65;;;;;;;8.36;76.24;100353.09;4978244;28;20035;-80
2021/12/28 06:45:26;;;;;;;10.18;7.75;;;;;;;8.35;75.25;100367.44;4978519;28;20117;-78
2021/12/28 06:47:52;;;;;;;11.05;7.85;;;;;;;8.49;75.09;100369.94;4977969;28;20049;-80
2021/12/28 06:50:18;;;;;;;11.30;8.25;;;;;;;8.62;75.65;100376.03;4994576;28;20461;-80
2021/12/28 06:52:43;;;;;;;8.88;6.80;;;;;;;8.71;76.87;100379.84;4997302;28;20037;-79
2021/12/28 06:55:10;;;;;;;10.90;7.65;;;;;;;8.77;76.31;100389.25;4997753;28;20033;-79
2021/12/28 06:57:36;;;;;;;12.93;7.50;;;;;;;8.90;75.59;100390.00;4998209;28;20110;-80
2021/12/28 07:00:06;;;;;;;15.23;9.50;;;;;;;8.86;73.94;100377.81;4998170;28;20105;-79
2021/12/28 07:02:34;;;;;;;13.60;10.13;;;;;;;8.80;73.41;100384.50;4980961;28;20034;-78
2021/12/28 07:04:59;;;;;;;10.60;8.70;;;;;;;8.73;72.54;100384.13;4993292;28;20030;-77
2021/12/28 07:07:25;;;;;;;15.30;10.25;;;;;;;8.62;72.39;100370.69;4998735;28;20026;-79
2021/12/28 07:09:50;;;;;;;14.32;10.90;;;;;;;8.60;72.82;100386.03;4997534;28;20026;-78
2021/12/28 07:12:16;;;;;;;12.25;8.88;;;;;;;8.45;73.11;100368.44;4997189;28;20037;-79
2021/12/28 07:14:41;;;;;;;23.52;10.50;;;;;;;8.45;74.17;100395.25;4997602;28;20034;-78
2021/12/28 07:17:07;;;;;;;9.70;7.35;;;;;;;8.29;74.47;100394.69;4995742;28;20030;-79
2021/12/28 07:19:32;;;;;;;16.67;9.32;;;;;;;8.09;73.95;100380.13;4964932;28;20045;-76
2021/12/28 07:21:58;;;;;;;41.97;16.83;;;;;;;8.00;74.07;100382.63;4977573;28;20034;-77
2021/12/28 07:24:23;;;;;;;11.82;7.38;;;;;;;7.91;75.73;100383.31;4978307;28;20115;-77
2021/12/28 07:26:49;;;;;;;10.40;7.65;;;;;;;7.86;75.79;100385.47;4983198;28;20041;-76
2021/12/28 07:29:15;;;;;;;11.32;8.15;;;;;;;7.90;75.89;100384.25;5006156;28;20042;-77
2021/12/28 07:31:41;;;;;;;11.35;7.95;;;;;;;7.92;77.45;100390.38;4994728;28;20031;-77
2021/12/28 07:34:07;;;;;;;11.30;8.38;;;;;;;7.88;77.35;100386.22;4977331;28;20113;-78
2021/12/28 07:36:32;;;;;;;15.05;9.18;;;;;;;8.00;77.52;100393.34;4977262;28;20181;-77
2021/12/28 07:38:58;;;;;;;17.90;9.15;;;;;;;8.03;77.48;100388.59;4987011;28;20475;-77
2021/12/28 07:41:23;;;;;;;13.90;8.75;;;;;;;8.21;76.51;100391.72;4997343;28;20030;-78
2021/12/28 07:43:49;;;;;;;15.93;9.40;;;;;;;8.32;76.27;100399.81;4996543;28;20472;-77
2021/12/28 07:46:15;;;;;;;14.27;7.88;;;;;;;8.41;75.09;100398.31;4996517;28;20030;-77
2021/12/28 07:48:41;;;;;;;10.85;7.63;;;;;;;8.29;73.02;100389.34;4995423;28;20120;-77
2021/12/28 07:51:07;;;;;;;13.45;9.20;;;;;;;8.28;72.71;100395.69;4995424;28;20030;-76
2021/12/28 07:53:35;;;;;;;13.63;9.25;;;;;;;8.27;74.76;100412.69;4980099;28;20080;-77
2021/12/28 07:56:02;;;;;;;14.93;8.70;;;;;;;8.28;74.92;100417.13;4983227;28;20473;-76
2021/12/28 07:58:28;;;;;;;14.68;8.68;;;;;;;8.32;75.50;100413.22;4981442;28;20030;-76
2021/12/28 08:00:54;;;;;;;11.85;7.97;;;;;;;8.26;74.29;100412.78;4981127;28;20034;-78
2021/12/28 08:03:22;;;;;;;12.88;8.13;;;;;;;8.20;74.73;100404.25;4979338;28;20041;-77
2021/12/28 08:05:49;;;;;;;12.13;8.75;;;;;;;8.23;74.86;100405.84;4978894;28;20038;-77
2021/12/28 08:08:14;;;;;;;11.30;8.65;;;;;;;8.37;75.65;100412.88;4981219;28;20101;-77
2021/12/28 08:10:40;;;;;;;9.73;7.93;;;;;;;8.30;74.48;100401.78;4976899;28;20058;-77
2021/12/28 08:13:06;;;;;;;11.85;8.65;;;;;;;8.29;74.31;100400.06;4976809;28;20026;-78
2021/12/28 08:15:31;;;;;;;13.52;10.60;;;;;;;8.38;75.01;100407.41;4978281;28;20023;-76
2021/12/28 08:17:56;;;;;;;11.90;8.95;;;;;;;8.39;74.53;100409.13;4997793;28;20112;-77
2021/12/28 08:20:22;;;;;;;12.65;8.63;;;;;;;8.47;75.43;100406.69;4997347;28;20054;-76
2021/12/28 08:22:49;;;;;;;12.25;8.98;;;;;;;8.46;73.32;100406.84;4992370;28;20038;-77
2021/12/28 08:25:18;;;;;;;11.32;8.68;;;;;;;8.41;73.61;100404.47;4996454;28;20034;-77
2021/12/28 08:27:44;;;;;;;12.15;8.20;;;;;;;8.26;72.75;100402.94;4994589;28;20048;-77
2021/12/28 08:30:12;;;;;;;16.55;8.82;;;;;;;8.33;73.73;100400.69;4995932;28;20034;-76
2021/12/28 08:32:38;;;;;;;16.33;8.52;;;;;;;8.41;75.13;100415.19;4995789;28;20029;-78
2021/12/28 08:35:05;;;;;;;16.40;10.55;;;;;;;8.49;75.67;100411.97;4993697;28;20026;-77
2021/12/28 08:37:31;;;;;;;14.45;10.80;;;;;;;8.57;76.32;100420.25;4995470;28;20457;-77
2021/12/28 08:39:56;;;;;;;14.40;10.68;;;;;;;8.60;75.60;100420.88;4996087;28;20026;-76
2021/12/28 08:42:23;;;;;;;12.52;9.25;;;;;;;8.72;75.67;100409.22;4994554;28;20042;-76
2021/12/28 08:44:49;;;;;;;15.32;9.57;;;;;;;8.66;72.63;100403.47;4995196;28;20530;-76
2021/12/28 08:47:16;;;;;;;15.13;10.25;;;;;;;8.60;73.45;100398.56;4995413;28;20050;-77
2021/12/28 08:49:42;;;;;;;14.70;8.98;;;;;;;8.69;73.59;100416.63;4977999;28;20440;-77
2021/12/28 08:52:07;;;;;;;16.38;8.38;;;;;;;8.73;74.42;100408.25;4982005;28;20067;-78
2021/12/28 08:54:34;;;;;;;14.73;9.35;;;;;;;8.73;74.12;100410.94;4994513;28;20037;-77
2021/12/28 08:57:00;;;;;;;14.43;8.45;;;;;;;8.72;74.32;100403.84;4991577;28;20066;-77
2021/12/28 08:59:25;;;;;;;16.63;8.70;;;;;;;8.63;73.34;100399.19;4995405;28;20062;-79
2021/12/28 09:01:51;;;;;;;14.93;8.77;;;;;;;8.57;72.41;100413.06;4994760;28;20034;-77
2021/12/28 09:04:18;;;;;;;15.77;10.32;;;;;;;8.63;73.51;100415.28;4981691;28;20483;-78
2021/12/28 09:06:45;;;;;;;24.90;13.13;;;;;;;8.62;72.75;100420.78;4970175;28;20045;-77
2021/12/28 09:09:11;;;;;;;20.67;12.55;;;;;;;8.65;72.64;100407.97;4997431;28;20022;-77
2021/12/28 09:11:37;;;;;;;11.07;8.38;;;;;;;8.63;71.85;100414.44;4995660;28;20399;-80
2021/12/28 09:14:03;;;;;;;13.57;8.32;;;;;;;8.60;71.77;100407.47;4995150;28;20030;-78
2021/12/28 09:16:29;;;;;;;14.57;8.90;;;;;;;8.64;71.83;100411.66;4994768;28;20504;-78
2021/12/28 09:18:55;;;;;;;15.05;9.35;;;;;;;8.65;71.91;100402.59;4977311;28;20114;-79
2021/12/28 09:21:20;;;;;;;21.88;13.02;;;;;;;8.89;72.37;100415.09;4986765;28;20065;-79
2021/12/28 09:23:46;;;;;;;34.45;12.30;;;;;;;9.06;72.66;100406.59;4988131;28;20046;-79
2021/12/28 09:26:11;;;;;;;13.80;8.45;;;;;;;9.20;71.97;100392.94;4990950;28;20039;-77
2021/12/28 09:28:37;;;;;;;17.08;9.07;;;;;;;9.31;71.68;100395.63;4975168;28;20027;-77
2021/12/28 09:31:02;;;;;;;13.25;7.65;;;;;;;9.27;69.75;100394.16;4975231;28;20027;-79
2021/12/28 09:33:28;;;;;;;24.73;8.60;;;;;;;9.19;69.33;100396.59;4975199;28;20038;-77
2021/12/28 09:35:54;;;;;;;13.73;7.57;;;;;;;9.13;69.68;100381.84;4975808;28;20453;-77
2021/12/28 09:38:43;;;;;;;65.85;11.88;;;;;;;9.33;71.17;100384.78;4983887;28;20074;-78
2021/12/28 09:41:10;;;;;;;10.07;7.15;;;;;;;9.34;69.99;100386.47;4976651;28;20096;-77
2021/12/28 09:43:37;;;;;;;13.05;7.57;;;;;;;9.44;69.63;100385.63;4976698;28;20034;-78
2021/12/28 09:46:03;;;;;;;16.83;9.40;;;;;;;9.45;69.20;100376.56;4990996;28;20027;-77
2021/12/28 09:48:29;;;;;;;68.60;12.77;;;;;;;9.49;69.41;100361.94;4996504;28;20048;-78
2021/12/28 09:50:54;;;;;;;21.70;8.50;;;;;;;9.64;71.06;100371.44;4995272;28;20019;-77
2021/12/28 09:53:20;;;;;;;14.90;9.48;;;;;;;9.69;71.48;100373.75;4994846;28;20025;-76
2021/12/28 09:55:45;;;;;;;18.65;9.05;;;;;;;9.68;71.08;100372.03;4994290;28;20125;-77
2021/12/28 09:58:11;;;;;;;17.65;9.40;;;;;;;9.49;68.70;100380.72;4963022;28;20029;-77
2021/12/28 10:00:37;;;;;;;23.88;10.02;;;;;;;9.56;68.90;100379.25;4969755;28;20027;-78
2021/12/28 10:03:03;;;;;;;28.08;12.60;;;;;;;9.72;69.82;100379.69;4993533;28;20030;-78
2021/12/28 10:05:30;;;;;;;16.90;9.82;;;;;;;9.64;69.72;100382.16;4993533;28;20082;-77
2021/12/28 10:08:02;;;;;;;20.77;7.43;;;;;;;9.67;68.67;100381.91;4976128;28;20468;-77
2021/12/28 10:10:40;;;;;;;34.55;9.07;;;;;;;9.68;68.57;100383.63;4993242;28;20053;-77
2021/12/28 10:13:09;;;;;;;25.65;13.40;;;;;;;9.77;69.37;100377.50;4991683;28;20038;-78
2021/12/28 10:15:37;;;;;;;22.70;11.43;;;;;;;9.93;69.42;100387.00;4994456;28;20109;-79
2021/12/28 10:18:07;;;;;;;16.50;9.85;;;;;;;9.81;68.63;100387.00;4973173;28;20067;-79
2021/12/28 10:20:39;;;;;;;24.05;10.82;;;;;;;9.62;67.26;100389.50;4975938;28;20030;-78
2021/12/28 10:23:11;;;;;;;30.40;8.90;;;;;;;9.45;67.53;100392.69;4988567;28;20488;-77
2021/12/28 10:25:42;;;;;;;20.75;9.82;;;;;;;9.26;68.05;100390.59;4994326;28;20041;-78
2021/12/28 10:28:14;;;;;;;17.20;8.25;;;;;;;9.26;68.50;100392.47;4993905;28;20118;-78
2021/12/28 10:30:44;;;;;;;18.90;9.80;;;;;;;9.33;68.66;100382.94;4993032;28;20072;-78
2021/12/28 10:33:14;;;;;;;73.60;11.98;;;;;;;9.24;68.72;100389.88;4987097;28;20029;-77
2021/12/28 10:35:50;;;;;;;62.13;11.20;;;;;;;9.05;68.16;100376.22;4986611;28;20053;-77
2021/12/28 10:38:23;;;;;;;11.35;7.95;;;;;;;9.03;68.24;100398.78;4975059;28;20113;-76
2021/12/28 10:40:48;;;;;;;13.93;8.25;;;;;;;8.96;68.74;100390.34;4983813;28;20041;-77
2021/12/28 10:43:21;;;;;;;17.10;11.07;;;;;;;8.97;71.01;100383.16;4983093;28;20379;-79
2021/12/28 10:45:49;;;;;;;38.05;11.50;;;;;;;8.91;70.39;100386.34;4984374;28;20083;-78
2021/12/28 10:48:28;;;;;;;21.73;10.10;;;;;;;8.87;70.09;100396.44;5009524;28;20205;-77
2021/12/28 10:51:01;;;;;;;27.17;12.18;;;;;;;8.93;71.69;100404.00;4976828;28;20023;-76
2021/12/28 10:53:36;;;;;;;26.33;12.93;;;;;;;8.92;71.87;100401.47;4993537;28;20018;-77
2021/12/28 10:56:05;;;;;;;20.45;11.27;;;;;;;8.91;70.65;100402.41;4977733;28;20097;-77
2021/12/28 10:58:41;;;;;;;17.38;10.90;;;;;;;8.96;70.95;100395.72;4973915;28;20445;-77
2021/12/28 11:01:13;;;;;;;23.00;11.20;;;;;;;8.91;71.20;100391.69;4983080;28;20077;-77
2021/12/28 11:03:41;;;;;;;16.70;9.77;;;;;;;8.89;69.95;100399.03;4993380;28;20038;-77
2021/12/28 11:06:29;;;;;;;46.20;15.20;;;;;;;8.95;69.99;100402.06;4993582;28;20046;-78
2021/12/28 11:09:22;;;;;;;38.58;11.15;;;;;;;9.04;69.43;100408.53;4992565;28;20105;-76
2021/12/28 11:11:49;;;;;;;16.75;10.75;;;;;;;9.13;69.52;100402.44;4993775;28;20022;-76
2021/12/28 11:14:23;;;;;;;30.85;11.05;;;;;;;9.19;69.46;100408.19;4993979;28;20105;-76
2021/12/28 11:16:51;;;;;;;17.63;10.32;;;;;;;9.06;69.11;100407.44;4993367;28;20514;-77
2021/12/28 11:19:25;;;;;;;42.13;12.77;;;;;;;9.11;71.20;100405.25;4993164;28;20550;-76
2021/12/28 11:21:54;;;;;;;19.77;12.60;;;;;;;9.04;70.89;100400.50;4988531;28;20500;-77
2021/12/28 11:24:19;;;;;;;41.13;13.15;;;;;;;9.09;71.85;100400.97;4992046;28;20511;-77